sensor_id;sensor_type;location;lat;lon;timestamp;temperature;humidity
23568;DHT22;11962;50.838;4.430;2022-10-16T00:02:22;15.20;99.90
23568;DHT22;11962;50.838;4.430;2022-10-16T00:04:47;15.20;99.90
23568;DHT22;11962;50.838;4.430;2022-10-16T00:07:13;15.20;99.90
23568;DHT22;11962;50.838;4.430;2022-10-16T00:09:39;15.20;99.90
23568;DHT22;11962;50.838;4.430;2022-10-16T00:12:04;15.20;99.90
23568;DHT22;11962;50.838;4.430;2022-10-16T00:17:53;15.20;99.90
23568;DHT22;11962;50.838;4.430;2022-10-16T00:20:19;15.20;99.90
23568;DHT22;11962;50.838;4.430;2022-10-16T00:22:45;15.20;99.90
23568;DHT22;11962;50.838;4.430;2022-10-16T00:25:10;15.20;99.90
23568;DHT22;11962;50.838;4.430;2022-10-16T00:27:36;15.10;99.90
23568;DHT22;11962;50.838;4.430;2022-10-16T00:33:23;15.10;99.90
23568;DHT22;11962;50.838;4.430;2022-10-16T00:35:49;15.10;99.90
23568;DHT22;11962;50.838;4.430;2022-10-16T00:38:16;15.10;99.90
23568;DHT22;11962;50.838;4.430;2022-10-16T00:40:42;15.10;99.90
23568;DHT22;11962;50.838;4.430;2022-10-16T00:43:14;15.00;99.90
23568;DHT22;11962;50.838;4.430;2022-10-16T00:49:11;15.00;99.90
23568;DHT22;11962;50.838;4.430;2022-10-16T00:51:41;15.00;99.90
23568;DHT22;11962;50.838;4.430;2022-10-16T00:54:14;15.00;99.90
23568;DHT22;11962;50.838;4.430;2022-10-16T00:56:41;14.90;99.90
23568;DHT22;11962;50.838;4.430;2022-10-16T00:59:20;14.90;99.90
23568;DHT22;11962;50.838;4.430;2022-10-16T01:05:09;14.90;99.90
23568;DHT22;11962;50.838;4.430;2022-10-16T01:07:45;14.90;99.90
23568;DHT22;11962;50.838;4.430;2022-10-16T01:10:35;14.90;99.90
23568;DHT22;11962;50.838;4.430;2022-10-16T01:13:27;14.90;99.90
23568;DHT22;11962;50.838;4.430;2022-10-16T01:18:30;14.80;99.90
23568;DHT22;11962;50.838;4.430;2022-10-16T01:21:00;14.80;99.90
23568;DHT22;11962;50.838;4.430;2022-10-16T01:29:32;14.80;99.90
23568;DHT22;11962;50.838;4.430;2022-10-16T01:32:00;14.80;99.90
23568;DHT22;11962;50.838;4.430;2022-10-16T01:34:52;14.80;99.90
23568;DHT22;11962;50.838;4.430;2022-10-16T01:37:42;14.80;99.90
23568;DHT22;11962;50.838;4.430;2022-10-16T01:40:12;14.80;99.90
23568;DHT22;11962;50.838;4.430;2022-10-16T01:42:48;14.80;99.90
23568;DHT22;11962;50.838;4.430;2022-10-16T01:48:36;14.80;99.90
23568;DHT22;11962;50.838;4.430;2022-10-16T01:51:09;14.80;99.90
23568;DHT22;11962;50.838;4.430;2022-10-16T01:53:38;14.80;99.90
23568;DHT22;11962;50.838;4.430;2022-10-16T01:56:08;14.80;99.90
23568;DHT22;11962;50.838;4.430;2022-10-16T01:58:37;14.80;99.90
23568;DHT22;11962;50.838;4.430;2022-10-16T02:07:49;14.70;99.90
23568;DHT22;11962;50.838;4.430;2022-10-16T02:10:15;14.70;99.90
23568;DHT22;11962;50.838;4.430;2022-10-16T02:12:45;14.70;99.90
23568;DHT22;11962;50.838;4.430;2022-10-16T02:15:13;14.70;99.90
23568;DHT22;11962;50.838;4.430;2022-10-16T02:17:39;14.70;99.90
23568;DHT22;11962;50.838;4.430;2022-10-16T02:20:05;14.70;99.90
23568;DHT22;11962;50.838;4.430;2022-10-16T02:22:36;14.70;99.90
23568;DHT22;11962;50.838;4.430;2022-10-16T02:28:02;14.80;99.90
23568;DHT22;11962;50.838;4.430;2022-10-16T02:33:38;14.70;99.90
23568;DHT22;11962;50.838;4.430;2022-10-16T02:36:05;14.80;99.90
23568;DHT22;11962;50.838;4.430;2022-10-16T02:38:32;14.80;99.90
23568;DHT22;11962;50.838;4.430;2022-10-16T02:40:58;14.70;99.90
23568;DHT22;11962;50.838;4.430;2022-10-16T02:43:25;14.80;99.90
23568;DHT22;11962;50.838;4.430;2022-10-16T02:49:13;14.80;99.90
23568;DHT22;11962;50.838;4.430;2022-10-16T02:51:39;14.80;99.90
23568;DHT22;11962;50.838;4.430;2022-10-16T02:54:05;14.70;99.90
23568;DHT22;11962;50.838;4.430;2022-10-16T02:56:30;14.70;99.90
23568;DHT22;11962;50.838;4.430;2022-10-16T02:59:08;14.70;99.90
23568;DHT22;11962;50.838;4.430;2022-10-16T03:01:34;14.70;99.90
23568;DHT22;11962;50.838;4.430;2022-10-16T03:03:59;14.70;99.90
23568;DHT22;11962;50.838;4.430;2022-10-16T03:06:25;14.70;99.90
23568;DHT22;11962;50.838;4.430;2022-10-16T03:08:50;14.70;99.90
23568;DHT22;11962;50.838;4.430;2022-10-16T03:11:16;14.70;99.90
23568;DHT22;11962;50.838;4.430;2022-10-16T03:13:42;14.60;99.90
23568;DHT22;11962;50.838;4.430;2022-10-16T03:16:07;14.70;99.90
23568;DHT22;11962;50.838;4.430;2022-10-16T03:18:33;14.70;99.90
23568;DHT22;11962;50.838;4.430;2022-10-16T03:20:59;14.70;99.90
23568;DHT22;11962;50.838;4.430;2022-10-16T03:23:24;14.70;99.90
23568;DHT22;11962;50.838;4.430;2022-10-16T03:25:50;14.70;99.90
23568;DHT22;11962;50.838;4.430;2022-10-16T03:28:15;14.70;99.90
23568;DHT22;11962;50.838;4.430;2022-10-16T03:30:43;14.70;99.90
23568;DHT22;11962;50.838;4.430;2022-10-16T03:36:31;14.70;99.90
23568;DHT22;11962;50.838;4.430;2022-10-16T03:38:56;14.70;99.90
23568;DHT22;11962;50.838;4.430;2022-10-16T03:41:22;14.70;99.90
23568;DHT22;11962;50.838;4.430;2022-10-16T03:43:48;14.70;99.90
23568;DHT22;11962;50.838;4.430;2022-10-16T03:46:13;14.70;99.90
23568;DHT22;11962;50.838;4.430;2022-10-16T03:52:00;14.70;99.90
23568;DHT22;11962;50.838;4.430;2022-10-16T03:54:26;14.70;99.90
23568;DHT22;11962;50.838;4.430;2022-10-16T03:56:52;14.60;99.90
23568;DHT22;11962;50.838;4.430;2022-10-16T03:59:17;14.60;99.90
23568;DHT22;11962;50.838;4.430;2022-10-16T04:01:43;14.70;99.90
23568;DHT22;11962;50.838;4.430;2022-10-16T04:07:59;14.70;99.90
23568;DHT22;11962;50.838;4.430;2022-10-16T04:10:24;14.70;99.90
23568;DHT22;11962;50.838;4.430;2022-10-16T04:12:50;14.70;99.90
23568;DHT22;11962;50.838;4.430;2022-10-16T04:15:16;14.70;99.90
23568;DHT22;11962;50.838;4.430;2022-10-16T04:17:41;14.70;99.90
23568;DHT22;11962;50.838;4.430;2022-10-16T04:20:07;14.70;99.90
23568;DHT22;11962;50.838;4.430;2022-10-16T04:22:33;14.70;99.90
23568;DHT22;11962;50.838;4.430;2022-10-16T04:24:59;14.70;99.90
23568;DHT22;11962;50.838;4.430;2022-10-16T04:27:24;14.70;99.90
23568;DHT22;11962;50.838;4.430;2022-10-16T04:29:50;14.80;99.90
23568;DHT22;11962;50.838;4.430;2022-10-16T04:32:31;14.70;99.90
23568;DHT22;11962;50.838;4.430;2022-10-16T04:34:57;14.60;99.90
23568;DHT22;11962;50.838;4.430;2022-10-16T04:37:26;14.60;99.90
23568;DHT22;11962;50.838;4.430;2022-10-16T04:39:52;14.60;99.90
23568;DHT22;11962;50.838;4.430;2022-10-16T04:42:19;14.60;99.90
23568;DHT22;11962;50.838;4.430;2022-10-16T04:44:44;14.70;99.90
23568;DHT22;11962;50.838;4.430;2022-10-16T04:47:10;14.60;99.90
23568;DHT22;11962;50.838;4.430;2022-10-16T04:49:36;14.60;99.90
23568;DHT22;11962;50.838;4.430;2022-10-16T04:52:01;14.60;99.90
23568;DHT22;11962;50.838;4.430;2022-10-16T04:54:27;14.60;99.90
23568;DHT22;11962;50.838;4.430;2022-10-16T04:56:53;14.60;99.90
23568;DHT22;11962;50.838;4.430;2022-10-16T04:59:20;14.50;99.90
23568;DHT22;11962;50.838;4.430;2022-10-16T05:01:46;14.60;99.90
23568;DHT22;11962;50.838;4.430;2022-10-16T05:04:12;14.60;99.90
23568;DHT22;11962;50.838;4.430;2022-10-16T05:06:38;14.60;99.90
23568;DHT22;11962;50.838;4.430;2022-10-16T05:09:05;14.60;99.90
23568;DHT22;11962;50.838;4.430;2022-10-16T05:11:31;14.60;99.90
23568;DHT22;11962;50.838;4.430;2022-10-16T05:13:56;14.60;99.90
23568;DHT22;11962;50.838;4.430;2022-10-16T05:16:22;14.60;99.90
23568;DHT22;11962;50.838;4.430;2022-10-16T05:22:25;14.50;99.90
23568;DHT22;11962;50.838;4.430;2022-10-16T05:24:51;14.50;99.90
23568;DHT22;11962;50.838;4.430;2022-10-16T05:27:16;14.50;99.90
23568;DHT22;11962;50.838;4.430;2022-10-16T05:30:02;14.40;99.90
23568;DHT22;11962;50.838;4.430;2022-10-16T05:32:28;14.40;99.90
23568;DHT22;11962;50.838;4.430;2022-10-16T05:38:50;14.40;99.90
23568;DHT22;11962;50.838;4.430;2022-10-16T05:41:16;14.40;99.90
23568;DHT22;11962;50.838;4.430;2022-10-16T05:43:47;14.40;99.90
23568;DHT22;11962;50.838;4.430;2022-10-16T05:46:13;14.30;99.90
23568;DHT22;11962;50.838;4.430;2022-10-16T05:48:39;14.30;99.90
23568;DHT22;11962;50.838;4.430;2022-10-16T05:51:06;14.30;99.90
23568;DHT22;11962;50.838;4.430;2022-10-16T05:53:34;14.30;99.90
23568;DHT22;11962;50.838;4.430;2022-10-16T05:56:00;14.30;99.90
23568;DHT22;11962;50.838;4.430;2022-10-16T05:58:30;14.30;99.90
23568;DHT22;11962;50.838;4.430;2022-10-16T06:00:58;14.30;99.90
23568;DHT22;11962;50.838;4.430;2022-10-16T06:03:23;14.30;99.90
23568;DHT22;11962;50.838;4.430;2022-10-16T06:05:49;14.30;99.90
23568;DHT22;11962;50.838;4.430;2022-10-16T06:08:15;14.20;99.90
23568;DHT22;11962;50.838;4.430;2022-10-16T06:10:42;14.20;99.90
23568;DHT22;11962;50.838;4.430;2022-10-16T06:13:09;14.20;99.90
23568;DHT22;11962;50.838;4.430;2022-10-16T06:15:34;14.30;99.90
23568;DHT22;11962;50.838;4.430;2022-10-16T06:18:00;14.30;99.90
23568;DHT22;11962;50.838;4.430;2022-10-16T06:20:50;14.30;99.90
23568;DHT22;11962;50.838;4.430;2022-10-16T06:23:16;14.30;99.90
23568;DHT22;11962;50.838;4.430;2022-10-16T06:25:41;14.30;99.90
23568;DHT22;11962;50.838;4.430;2022-10-16T06:28:07;14.30;99.90
23568;DHT22;11962;50.838;4.430;2022-10-16T06:30:33;14.30;99.90
23568;DHT22;11962;50.838;4.430;2022-10-16T06:32:58;14.30;99.90
23568;DHT22;11962;50.838;4.430;2022-10-16T06:38:46;14.30;99.90
23568;DHT22;11962;50.838;4.430;2022-10-16T06:41:15;14.30;99.90
23568;DHT22;11962;50.838;4.430;2022-10-16T06:43:41;14.40;99.90
23568;DHT22;11962;50.838;4.430;2022-10-16T06:46:09;14.40;99.90
23568;DHT22;11962;50.838;4.430;2022-10-16T06:48:35;14.50;99.90
23568;DHT22;11962;50.838;4.430;2022-10-16T06:53:33;14.90;99.90
23568;DHT22;11962;50.838;4.430;2022-10-16T06:56:17;15.00;99.90
23568;DHT22;11962;50.838;4.430;2022-10-16T06:58:43;15.20;99.90
23568;DHT22;11962;50.838;4.430;2022-10-16T07:01:10;15.40;99.90
23568;DHT22;11962;50.838;4.430;2022-10-16T07:03:37;15.50;99.90
23568;DHT22;11962;50.838;4.430;2022-10-16T07:06:04;15.70;99.90
23568;DHT22;11962;50.838;4.430;2022-10-16T07:08:32;15.90;99.90
23568;DHT22;11962;50.838;4.430;2022-10-16T07:11:03;15.90;99.90
23568;DHT22;11962;50.838;4.430;2022-10-16T07:13:28;16.00;99.90
23568;DHT22;11962;50.838;4.430;2022-10-16T07:15:54;16.10;99.90
23568;DHT22;11962;50.838;4.430;2022-10-16T07:18:20;16.20;99.90
23568;DHT22;11962;50.838;4.430;2022-10-16T07:20:49;16.30;99.90
23568;DHT22;11962;50.838;4.430;2022-10-16T07:23:15;16.30;99.90
23568;DHT22;11962;50.838;4.430;2022-10-16T07:25:41;16.30;99.90
23568;DHT22;11962;50.838;4.430;2022-10-16T07:28:06;16.30;99.90
23568;DHT22;11962;50.838;4.430;2022-10-16T07:30:35;16.30;99.90
23568;DHT22;11962;50.838;4.430;2022-10-16T07:33:02;16.30;99.90
23568;DHT22;11962;50.838;4.430;2022-10-16T07:35:28;16.30;99.90
23568;DHT22;11962;50.838;4.430;2022-10-16T07:37:54;16.20;99.90
23568;DHT22;11962;50.838;4.430;2022-10-16T07:40:21;16.20;99.90
23568;DHT22;11962;50.838;4.430;2022-10-16T07:42:46;16.20;99.90
23568;DHT22;11962;50.838;4.430;2022-10-16T07:45:12;16.20;99.90
23568;DHT22;11962;50.838;4.430;2022-10-16T07:47:38;16.20;99.90
23568;DHT22;11962;50.838;4.430;2022-10-16T07:50:04;16.30;99.90
23568;DHT22;11962;50.838;4.430;2022-10-16T07:52:29;16.30;99.90
23568;DHT22;11962;50.838;4.430;2022-10-16T07:54:55;16.40;99.90
23568;DHT22;11962;50.838;4.430;2022-10-16T07:57:21;16.40;99.90
23568;DHT22;11962;50.838;4.430;2022-10-16T07:59:46;16.50;99.90
23568;DHT22;11962;50.838;4.430;2022-10-16T08:02:12;16.60;99.90
23568;DHT22;11962;50.838;4.430;2022-10-16T08:04:38;16.60;99.90
23568;DHT22;11962;50.838;4.430;2022-10-16T08:07:03;16.70;99.90
23568;DHT22;11962;50.838;4.430;2022-10-16T08:10:00;16.70;99.90
23568;DHT22;11962;50.838;4.430;2022-10-16T08:12:29;16.70;99.90
23568;DHT22;11962;50.838;4.430;2022-10-16T08:14:54;16.80;99.90
23568;DHT22;11962;50.838;4.430;2022-10-16T08:17:20;16.80;99.90
23568;DHT22;11962;50.838;4.430;2022-10-16T08:19:46;16.90;99.90
23568;DHT22;11962;50.838;4.430;2022-10-16T08:22:27;17.10;99.90
23568;DHT22;11962;50.838;4.430;2022-10-16T08:24:53;17.30;99.90
23568;DHT22;11962;50.838;4.430;2022-10-16T08:27:19;17.50;99.90
23568;DHT22;11962;50.838;4.430;2022-10-16T08:29:44;17.70;99.90
23568;DHT22;11962;50.838;4.430;2022-10-16T08:32:10;19.30;99.90
23568;DHT22;11962;50.838;4.430;2022-10-16T08:34:35;22.30;99.90
23568;DHT22;11962;50.838;4.430;2022-10-16T08:37:01;24.70;99.90
23568;DHT22;11962;50.838;4.430;2022-10-16T08:39:27;27.00;99.90
23568;DHT22;11962;50.838;4.430;2022-10-16T08:49:59;32.40;74.10
23568;DHT22;11962;50.838;4.430;2022-10-16T08:52:29;33.50;68.70
23568;DHT22;11962;50.838;4.430;2022-10-16T08:54:56;34.30;64.40
23568;DHT22;11962;50.838;4.430;2022-10-16T08:57:24;35.10;61.60
23568;DHT22;11962;50.838;4.430;2022-10-16T08:59:52;35.80;57.30
23568;DHT22;11962;50.838;4.430;2022-10-16T09:02:37;36.10;55.50
23568;DHT22;11962;50.838;4.430;2022-10-16T09:08:21;36.70;53.30
23568;DHT22;11962;50.838;4.430;2022-10-16T09:10:57;37.40;51.80
23568;DHT22;11962;50.838;4.430;2022-10-16T09:13:35;38.20;49.40
23568;DHT22;11962;50.838;4.430;2022-10-16T09:21:18;39.40;46.80
23568;DHT22;11962;50.838;4.430;2022-10-16T09:23:44;40.00;45.70
23568;DHT22;11962;50.838;4.430;2022-10-16T09:26:13;40.30;44.50
23568;DHT22;11962;50.838;4.430;2022-10-16T09:28:40;40.70;44.10
23568;DHT22;11962;50.838;4.430;2022-10-16T09:31:20;41.30;42.70
23568;DHT22;11962;50.838;4.430;2022-10-16T09:33:54;41.70;41.60
23568;DHT22;11962;50.838;4.430;2022-10-16T09:36:27;41.80;41.30
23568;DHT22;11962;50.838;4.430;2022-10-16T09:39:05;41.70;40.60
23568;DHT22;11962;50.838;4.430;2022-10-16T09:41:33;41.70;41.20
23568;DHT22;11962;50.838;4.430;2022-10-16T09:44:01;41.90;40.50
23568;DHT22;11962;50.838;4.430;2022-10-16T09:49:23;42.10;39.20
23568;DHT22;11962;50.838;4.430;2022-10-16T09:52:13;42.00;40.00
23568;DHT22;11962;50.838;4.430;2022-10-16T09:54:49;42.10;39.50
23568;DHT22;11962;50.838;4.430;2022-10-16T09:57:15;42.30;38.80
23568;DHT22;11962;50.838;4.430;2022-10-16T09:59:52;42.40;38.30
23568;DHT22;11962;50.838;4.430;2022-10-16T10:02:20;42.60;38.50
23568;DHT22;11962;50.838;4.430;2022-10-16T10:04:52;42.70;38.20
23568;DHT22;11962;50.838;4.430;2022-10-16T10:07:28;42.90;37.90
23568;DHT22;11962;50.838;4.430;2022-10-16T10:09:58;43.00;37.20
23568;DHT22;11962;50.838;4.430;2022-10-16T10:12:29;42.50;37.40
23568;DHT22;11962;50.838;4.430;2022-10-16T10:15:03;42.50;37.70
23568;DHT22;11962;50.838;4.430;2022-10-16T10:17:29;42.50;37.60
23568;DHT22;11962;50.838;4.430;2022-10-16T10:22:41;42.00;37.90
23568;DHT22;11962;50.838;4.430;2022-10-16T10:30:40;38.30;40.10
23568;DHT22;11962;50.838;4.430;2022-10-16T10:33:17;36.70;42.90
23568;DHT22;11962;50.838;4.430;2022-10-16T10:38:39;35.00;44.90
23568;DHT22;11962;50.838;4.430;2022-10-16T10:41:13;33.80;47.00
23568;DHT22;11962;50.838;4.430;2022-10-16T10:46:56;33.40;48.60
23568;DHT22;11962;50.838;4.430;2022-10-16T10:58:44;33.40;48.30
23568;DHT22;11962;50.838;4.430;2022-10-16T11:01:18;34.10;48.10
23568;DHT22;11962;50.838;4.430;2022-10-16T11:06:40;35.50;45.60
23568;DHT22;11962;50.838;4.430;2022-10-16T11:09:41;36.50;44.20
23568;DHT22;11962;50.838;4.430;2022-10-16T11:12:19;36.50;44.00
23568;DHT22;11962;50.838;4.430;2022-10-16T11:14:52;35.10;44.80
23568;DHT22;11962;50.838;4.430;2022-10-16T11:17:32;33.20;46.90
23568;DHT22;11962;50.838;4.430;2022-10-16T11:28:06;34.80;46.70
23568;DHT22;11962;50.838;4.430;2022-10-16T11:30:46;35.00;45.50
23568;DHT22;11962;50.838;4.430;2022-10-16T11:41:47;33.20;48.30
23568;DHT22;11962;50.838;4.430;2022-10-16T11:44:31;32.50;49.00
23568;DHT22;11962;50.838;4.430;2022-10-16T11:49:32;30.70;52.20
23568;DHT22;11962;50.838;4.430;2022-10-16T11:52:21;29.70;54.00
23568;DHT22;11962;50.838;4.430;2022-10-16T11:55:17;28.90;55.80
23568;DHT22;11962;50.838;4.430;2022-10-16T11:57:51;28.20;56.50
23568;DHT22;11962;50.838;4.430;2022-10-16T12:00:26;27.60;58.30
23568;DHT22;11962;50.838;4.430;2022-10-16T12:03:20;27.30;59.20
23568;DHT22;11962;50.838;4.430;2022-10-16T12:06:20;27.10;60.00
23568;DHT22;11962;50.838;4.430;2022-10-16T12:08:49;27.10;60.40
23568;DHT22;11962;50.838;4.430;2022-10-16T12:11:33;27.00;60.30
23568;DHT22;11962;50.838;4.430;2022-10-16T12:16:55;26.90;60.80
23568;DHT22;11962;50.838;4.430;2022-10-16T12:19:23;26.70;61.10
23568;DHT22;11962;50.838;4.430;2022-10-16T12:21:51;26.50;62.30
23568;DHT22;11962;50.838;4.430;2022-10-16T12:24:37;26.20;61.80
23568;DHT22;11962;50.838;4.430;2022-10-16T12:27:06;25.70;63.00
23568;DHT22;11962;50.838;4.430;2022-10-16T12:29:37;25.40;64.80
23568;DHT22;11962;50.838;4.430;2022-10-16T12:34:51;25.10;64.50
23568;DHT22;11962;50.838;4.430;2022-10-16T12:39:56;25.30;65.50
23568;DHT22;11962;50.838;4.430;2022-10-16T12:44:51;25.40;65.30
23568;DHT22;11962;50.838;4.430;2022-10-16T12:47:36;25.40;65.40
23568;DHT22;11962;50.838;4.430;2022-10-16T12:50:03;25.40;65.70
23568;DHT22;11962;50.838;4.430;2022-10-16T12:52:37;25.40;66.40
23568;DHT22;11962;50.838;4.430;2022-10-16T12:55:04;25.40;66.60
23568;DHT22;11962;50.838;4.430;2022-10-16T12:58:37;25.30;66.20
23568;DHT22;11962;50.838;4.430;2022-10-16T13:00:46;25.10;67.00
23568;DHT22;11962;50.838;4.430;2022-10-16T13:20:00;24.50;70.60
23568;DHT22;11962;50.838;4.430;2022-10-16T13:28:29;24.60;70.50
23568;DHT22;11962;50.838;4.430;2022-10-16T13:31:00;24.60;71.40
23568;DHT22;11962;50.838;4.430;2022-10-16T13:33:33;24.40;71.40
23568;DHT22;11962;50.838;4.430;2022-10-16T13:36:00;24.30;71.90
23568;DHT22;11962;50.838;4.430;2022-10-16T13:38:27;24.20;72.30
23568;DHT22;11962;50.838;4.430;2022-10-16T13:40:55;24.20;71.80
23568;DHT22;11962;50.838;4.430;2022-10-16T13:43:45;24.10;71.60
23568;DHT22;11962;50.838;4.430;2022-10-16T13:46:19;24.10;71.60
23568;DHT22;11962;50.838;4.430;2022-10-16T13:49:00;23.90;72.00
23568;DHT22;11962;50.838;4.430;2022-10-16T13:51:27;23.60;72.20
23568;DHT22;11962;50.838;4.430;2022-10-16T13:53:55;23.40;73.50
23568;DHT22;11962;50.838;4.430;2022-10-16T13:56:24;23.20;74.10
23568;DHT22;11962;50.838;4.430;2022-10-16T13:59:01;23.10;75.00
23568;DHT22;11962;50.838;4.430;2022-10-16T14:01:33;23.10;75.80
23568;DHT22;11962;50.838;4.430;2022-10-16T14:04:05;23.20;76.10
23568;DHT22;11962;50.838;4.430;2022-10-16T14:06:31;23.30;76.50
23568;DHT22;11962;50.838;4.430;2022-10-16T14:14:23;23.30;76.90
23568;DHT22;11962;50.838;4.430;2022-10-16T14:16:49;23.30;77.40
23568;DHT22;11962;50.838;4.430;2022-10-16T14:21:46;23.20;77.60
23568;DHT22;11962;50.838;4.430;2022-10-16T14:24:33;23.20;78.00
23568;DHT22;11962;50.838;4.430;2022-10-16T14:27:00;23.30;78.30
23568;DHT22;11962;50.838;4.430;2022-10-16T14:29:28;23.20;78.50
23568;DHT22;11962;50.838;4.430;2022-10-16T14:32:04;23.10;78.80
23568;DHT22;11962;50.838;4.430;2022-10-16T14:34:31;23.10;79.00
23568;DHT22;11962;50.838;4.430;2022-10-16T14:37:20;23.00;79.40
23568;DHT22;11962;50.838;4.430;2022-10-16T14:39:52;22.90;80.00
23568;DHT22;11962;50.838;4.430;2022-10-16T14:42:19;22.90;80.40
23568;DHT22;11962;50.838;4.430;2022-10-16T14:44:46;22.90;81.00
23568;DHT22;11962;50.838;4.430;2022-10-16T14:47:17;22.80;81.30
23568;DHT22;11962;50.838;4.430;2022-10-16T14:49:49;22.90;81.30
23568;DHT22;11962;50.838;4.430;2022-10-16T14:52:15;22.90;82.00
23568;DHT22;11962;50.838;4.430;2022-10-16T14:54:41;22.80;82.00
23568;DHT22;11962;50.838;4.430;2022-10-16T14:57:17;22.70;83.40
23568;DHT22;11962;50.838;4.430;2022-10-16T14:59:44;22.60;83.10
23568;DHT22;11962;50.838;4.430;2022-10-16T15:02:32;22.60;83.60
23568;DHT22;11962;50.838;4.430;2022-10-16T15:05:18;22.70;83.90
23568;DHT22;11962;50.838;4.430;2022-10-16T15:07:44;22.60;84.10
23568;DHT22;11962;50.838;4.430;2022-10-16T15:10:12;22.60;84.50
23568;DHT22;11962;50.838;4.430;2022-10-16T15:12:38;22.60;85.20
23568;DHT22;11962;50.838;4.430;2022-10-16T15:17:51;22.50;85.60
23568;DHT22;11962;50.838;4.430;2022-10-16T15:20:19;22.50;85.90
23568;DHT22;11962;50.838;4.430;2022-10-16T15:22:45;22.30;86.80
23568;DHT22;11962;50.838;4.430;2022-10-16T15:25:38;22.30;87.40
23568;DHT22;11962;50.838;4.430;2022-10-16T15:28:08;22.10;88.00
23568;DHT22;11962;50.838;4.430;2022-10-16T15:30:35;22.00;88.60
23568;DHT22;11962;50.838;4.430;2022-10-16T15:33:01;22.00;89.30
23568;DHT22;11962;50.838;4.430;2022-10-16T15:35:27;21.80;89.70
23568;DHT22;11962;50.838;4.430;2022-10-16T15:37:53;21.80;90.00
23568;DHT22;11962;50.838;4.430;2022-10-16T15:40:19;21.70;90.50
23568;DHT22;11962;50.838;4.430;2022-10-16T15:42:45;21.80;90.30
23568;DHT22;11962;50.838;4.430;2022-10-16T15:45:12;21.70;90.30
23568;DHT22;11962;50.838;4.430;2022-10-16T15:47:38;21.70;90.60
23568;DHT22;11962;50.838;4.430;2022-10-16T15:50:04;21.60;90.60
23568;DHT22;11962;50.838;4.430;2022-10-16T15:52:30;21.50;90.80
23568;DHT22;11962;50.838;4.430;2022-10-16T15:54:57;21.40;91.10
23568;DHT22;11962;50.838;4.430;2022-10-16T15:57:23;21.30;91.40
23568;DHT22;11962;50.838;4.430;2022-10-16T15:59:49;21.30;91.60
23568;DHT22;11962;50.838;4.430;2022-10-16T16:02:15;21.20;91.90
23568;DHT22;11962;50.838;4.430;2022-10-16T16:04:41;21.20;92.40
23568;DHT22;11962;50.838;4.430;2022-10-16T16:07:07;21.20;92.30
23568;DHT22;11962;50.838;4.430;2022-10-16T16:09:33;21.10;92.60
23568;DHT22;11962;50.838;4.430;2022-10-16T16:15:14;21.10;93.00
23568;DHT22;11962;50.838;4.430;2022-10-16T16:17:40;21.10;93.50
23568;DHT22;11962;50.838;4.430;2022-10-16T16:20:06;21.10;93.80
23568;DHT22;11962;50.838;4.430;2022-10-16T16:22:32;21.00;93.90
23568;DHT22;11962;50.838;4.430;2022-10-16T16:25:04;21.00;94.10
23568;DHT22;11962;50.838;4.430;2022-10-16T16:27:30;20.90;94.50
23568;DHT22;11962;50.838;4.430;2022-10-16T16:29:58;20.90;94.80
23568;DHT22;11962;50.838;4.430;2022-10-16T16:32:24;20.80;95.30
23568;DHT22;11962;50.838;4.430;2022-10-16T16:34:50;20.70;95.80
23568;DHT22;11962;50.838;4.430;2022-10-16T16:37:16;20.70;96.10
23568;DHT22;11962;50.838;4.430;2022-10-16T16:39:42;20.60;96.40
23568;DHT22;11962;50.838;4.430;2022-10-16T16:42:09;20.60;96.70
23568;DHT22;11962;50.838;4.430;2022-10-16T16:44:35;20.60;97.10
23568;DHT22;11962;50.838;4.430;2022-10-16T16:47:02;20.50;97.40
23568;DHT22;11962;50.838;4.430;2022-10-16T16:49:28;20.50;98.00
23568;DHT22;11962;50.838;4.430;2022-10-16T16:51:54;20.40;98.50
23568;DHT22;11962;50.838;4.430;2022-10-16T16:54:20;20.40;99.00
23568;DHT22;11962;50.838;4.430;2022-10-16T16:56:46;20.40;99.30
23568;DHT22;11962;50.838;4.430;2022-10-16T16:59:21;20.30;99.60
23568;DHT22;11962;50.838;4.430;2022-10-16T17:01:47;20.30;99.90
23568;DHT22;11962;50.838;4.430;2022-10-16T17:04:13;20.20;99.90
23568;DHT22;11962;50.838;4.430;2022-10-16T17:06:41;20.10;99.90
23568;DHT22;11962;50.838;4.430;2022-10-16T17:09:07;20.10;99.90
23568;DHT22;11962;50.838;4.430;2022-10-16T17:11:38;20.10;99.90
23568;DHT22;11962;50.838;4.430;2022-10-16T17:14:10;20.10;99.90
23568;DHT22;11962;50.838;4.430;2022-10-16T17:16:37;20.10;99.90
23568;DHT22;11962;50.838;4.430;2022-10-16T17:19:06;20.00;99.90
23568;DHT22;11962;50.838;4.430;2022-10-16T17:21:31;19.90;99.90
23568;DHT22;11962;50.838;4.430;2022-10-16T17:23:58;19.80;99.90
23568;DHT22;11962;50.838;4.430;2022-10-16T17:26:24;19.80;99.90
23568;DHT22;11962;50.838;4.430;2022-10-16T17:28:58;19.80;99.90
23568;DHT22;11962;50.838;4.430;2022-10-16T17:31:35;19.70;99.90
23568;DHT22;11962;50.838;4.430;2022-10-16T17:34:03;19.70;99.90
23568;DHT22;11962;50.838;4.430;2022-10-16T17:36:31;19.60;99.90
23568;DHT22;11962;50.838;4.430;2022-10-16T17:39:05;19.60;99.90
23568;DHT22;11962;50.838;4.430;2022-10-16T17:41:47;19.60;99.90
23568;DHT22;11962;50.838;4.430;2022-10-16T17:44:13;19.60;99.90
23568;DHT22;11962;50.838;4.430;2022-10-16T17:46:45;19.60;99.90
23568;DHT22;11962;50.838;4.430;2022-10-16T17:49:12;19.50;99.90
23568;DHT22;11962;50.838;4.430;2022-10-16T17:51:37;19.40;99.90
23568;DHT22;11962;50.838;4.430;2022-10-16T17:54:03;19.40;99.90
23568;DHT22;11962;50.838;4.430;2022-10-16T17:56:41;19.30;99.90
23568;DHT22;11962;50.838;4.430;2022-10-16T17:59:07;19.30;99.90
23568;DHT22;11962;50.838;4.430;2022-10-16T18:01:35;19.30;99.90
23568;DHT22;11962;50.838;4.430;2022-10-16T18:04:07;19.30;99.90
23568;DHT22;11962;50.838;4.430;2022-10-16T18:06:34;19.30;99.90
23568;DHT22;11962;50.838;4.430;2022-10-16T18:09:02;19.20;99.90
23568;DHT22;11962;50.838;4.430;2022-10-16T18:11:28;19.20;99.90
23568;DHT22;11962;50.838;4.430;2022-10-16T18:13:55;19.20;99.90
23568;DHT22;11962;50.838;4.430;2022-10-16T18:16:22;19.20;99.90
23568;DHT22;11962;50.838;4.430;2022-10-16T18:18:48;19.20;99.90
23568;DHT22;11962;50.838;4.430;2022-10-16T18:21:16;19.20;99.90
23568;DHT22;11962;50.838;4.430;2022-10-16T18:23:43;19.10;99.90
23568;DHT22;11962;50.838;4.430;2022-10-16T18:26:13;19.10;99.90
23568;DHT22;11962;50.838;4.430;2022-10-16T18:28:40;19.00;99.90
23568;DHT22;11962;50.838;4.430;2022-10-16T18:31:14;19.00;99.90
23568;DHT22;11962;50.838;4.430;2022-10-16T18:33:41;18.90;99.90
23568;DHT22;11962;50.838;4.430;2022-10-16T18:36:12;18.80;99.90
23568;DHT22;11962;50.838;4.430;2022-10-16T18:38:39;18.70;99.90
23568;DHT22;11962;50.838;4.430;2022-10-16T18:41:05;18.70;99.90
23568;DHT22;11962;50.838;4.430;2022-10-16T18:43:32;18.70;99.90